Time;durP1;ratioP1;P1;durP2;ratioP2;P2;SDS_P1;SDS_P2;PMS_P1;PMS_P2;Temp;Humidity;BMP_temperature;BMP_pressure;BME280_temperature;BME280_humidity;BME280_pressure;Samples;Min_cycle;Max_cycle;Signal;HPM_P1;HPM_P2
2021/08/30 00:01:58;;;;;;;9.60;7.10;;;;;;;14.87;91.07;99429.10;1751096;80;21281;-72
2021/08/30 00:04:25;;;;;;;7.53;6.75;;;;;;;14.86;90.99;99428.27;1740157;80;21547;-72
2021/08/30 00:06:51;;;;;;;8.65;7.65;;;;;;;14.87;91.56;99431.73;1744805;80;21606;-72
2021/08/30 00:09:18;;;;;;;9.53;7.23;;;;;;;14.85;91.28;99423.97;1748418;81;20964;-72
2021/08/30 00:11:45;;;;;;;16.60;8.38;;;;;;;14.84;91.27;99423.58;1748933;80;21087;-72
2021/08/30 00:14:11;;;;;;;9.23;7.37;;;;;;;14.83;91.15;99424.54;1753014;80;21015;-72
2021/08/30 00:16:38;;;;;;;9.23;7.83;;;;;;;14.82;91.11;99422.87;1755618;80;21172;-72
2021/08/30 00:19:05;;;;;;;14.98;8.35;;;;;;;14.82;91.35;99424.19;1745928;80;21618;-72
2021/08/30 00:21:32;;;;;;;11.88;7.92;;;;;;;14.83;91.43;99423.22;1744571;81;20954;-72
2021/08/30 00:23:58;;;;;;;8.50;7.22;;;;;;;14.83;91.30;99420.59;1746273;81;21571;-72
2021/08/30 00:26:25;;;;;;;12.40;7.75;;;;;;;14.85;91.43;99429.22;1740062;81;20964;-72
2021/08/30 00:28:51;;;;;;;7.37;6.67;;;;;;;14.85;91.49;99423.97;1751337;80;21647;-71
2021/08/30 00:31:18;;;;;;;13.93;7.57;;;;;;;14.85;91.58;99431.85;1746082;80;20982;-72
2021/08/30 00:33:45;;;;;;;9.53;7.07;;;;;;;14.87;91.46;99424.71;1741553;80;20945;-72
2021/08/30 00:36:11;;;;;;;9.20;6.93;;;;;;;14.89;91.73;99428.05;1743370;80;21490;-72
2021/08/30 00:38:38;;;;;;;10.40;7.60;;;;;;;14.89;91.62;99427.22;1745059;81;20980;-72
2021/08/30 00:41:04;;;;;;;7.17;6.27;;;;;;;14.91;91.57;99420.91;1746058;81;21651;-72
2021/08/30 00:43:31;;;;;;;12.10;6.92;;;;;;;14.93;91.60;99420.81;1746109;81;20911;-72
2021/08/30 00:46:00;;;;;;;7.43;6.07;;;;;;;14.92;91.59;99427.83;1745413;81;21045;-72
2021/08/30 00:48:27;;;;;;;7.05;6.30;;;;;;;14.94;91.56;99421.17;1747143;81;20982;-72
2021/08/30 00:50:54;;;;;;;8.10;5.73;;;;;;;14.97;91.63;99424.41;1748022;81;20942;-72
2021/08/30 00:53:21;;;;;;;6.67;5.17;;;;;;;14.99;91.75;99421.21;1749131;80;21120;-72
2021/08/30 00:55:48;;;;;;;12.68;6.37;;;;;;;15.04;91.67;99426.61;1746086;80;20959;-72
2021/08/30 00:58:15;;;;;;;7.78;5.97;;;;;;;15.07;91.60;99430.33;1743908;80;21467;-72
2021/08/30 01:00:43;;;;;;;6.15;5.47;;;;;;;15.10;91.57;99426.20;1747820;80;21535;-72
2021/08/30 01:03:11;;;;;;;10.32;6.25;;;;;;;15.11;91.46;99427.39;1745727;81;20985;-72
2021/08/30 01:05:42;;;;;;;6.28;5.30;;;;;;;15.14;91.48;99423.70;1743857;81;21121;-72
2021/08/30 01:08:23;;;;;;;6.72;5.58;;;;;;;15.14;91.48;99423.70;1739902;81;20960;-71
2021/08/30 01:11:13;;;;;;;7.97;4.60;;;;;;;15.15;91.49;99424.92;1745724;81;21603;-72
2021/08/30 01:13:48;;;;;;;7.08;5.08;;;;;;;15.20;91.56;99429.36;1748422;80;21133;-72
2021/08/30 01:16:18;;;;;;;6.55;5.50;;;;;;;15.24;91.52;99426.54;1751906;80;20986;-72
2021/08/30 01:18:45;;;;;;;6.35;5.28;;;;;;;15.21;91.44;99419.22;1769640;78;21065;-72
2021/08/30 01:21:19;;;;;;;7.62;5.53;;;;;;;15.20;91.53;99424.58;1780674;78;20944;-71
2021/08/30 01:24:06;;;;;;;7.30;5.55;;;;;;;15.18;91.52;99422.55;1780763;79;20947;-72
2021/08/30 01:26:43;;;;;;;10.50;6.78;;;;;;;15.18;91.53;99422.55;1775614;78;21100;-72
2021/08/30 01:29:42;;;;;;;7.55;5.97;;;;;;;15.18;91.54;99415.98;1779419;78;21079;-72
2021/08/30 01:32:33;;;;;;;7.78;5.70;;;;;;;15.23;91.68;99424.36;1778228;78;22312;-72
2021/08/30 01:35:04;;;;;;;7.12;6.08;;;;;;;15.28;91.69;99420.92;1776350;80;20997;-71
2021/08/30 01:37:34;;;;;;;9.15;5.70;;;;;;;15.29;91.60;99412.11;1786328;78;20997;-71
2021/08/30 01:40:05;;;;;;;9.10;6.15;;;;;;;15.26;91.52;99416.24;1772438;78;21047;-72
2021/08/30 01:42:35;;;;;;;6.35;4.85;;;;;;;15.24;91.52;99416.02;1737046;80;21035;-72
2021/08/30 01:45:05;;;;;;;5.50;4.53;;;;;;;15.23;91.55;99419.09;1750228;80;21128;-71
2021/08/30 01:47:34;;;;;;;7.22;4.35;;;;;;;15.25;91.63;99423.78;1749233;80;21025;-71
2021/08/30 01:50:04;;;;;;;4.72;3.85;;;;;;;15.26;91.63;99422.81;1771282;80;21572;-72
2021/08/30 01:52:39;;;;;;;6.25;3.47;;;;;;;15.25;91.55;99422.47;1744514;80;21013;-72
2021/08/30 01:55:21;;;;;;;5.28;3.67;;;;;;;15.24;91.48;99420.80;1772198;80;21038;-71
2021/08/30 02:00:51;;;;;;;4.65;3.22;;;;;;;15.21;91.48;99406.55;1767479;80;21520;-72
2021/08/30 02:03:26;;;;;;;3.83;3.40;;;;;;;15.15;91.48;99410.46;1768741;80;20929;-72
2021/08/30 02:05:57;;;;;;;8.20;3.12;;;;;;;15.11;91.48;99400.25;1768609;80;21492;-72
2021/08/30 02:08:25;;;;;;;8.98;2.98;;;;;;;15.08;91.44;99400.48;1764349;80;21005;-71
2021/08/30 02:10:56;;;;;;;4.28;3.02;;;;;;;15.05;91.46;99395.44;1768879;80;21085;-71
2021/08/30 02:13:27;;;;;;;4.95;2.80;;;;;;;15.04;91.49;99400.31;1771538;80;20986;-72
2021/08/30 02:15:54;;;;;;;6.45;3.27;;;;;;;15.00;91.48;99404.48;1765157;80;20906;-71
2021/08/30 02:19:10;;;;;;;5.62;3.30;;;;;;;14.95;91.44;99398.70;1774679;80;21472;-72
2021/08/30 02:21:54;;;;;;;3.35;3.02;;;;;;;14.94;91.46;99400.14;1783047;80;20947;-72
2021/08/30 02:24:38;;;;;;;3.27;2.62;;;;;;;14.93;91.55;99392.73;1779065;80;21195;-72
2021/08/30 02:27:20;;;;;;;9.73;3.83;;;;;;;14.92;91.49;99396.28;1777912;80;21512;-72
2021/08/30 02:30:01;;;;;;;5.03;3.30;;;;;;;14.92;91.51;99384.94;1777974;80;21058;-72
2021/08/30 02:32:31;;;;;;;4.90;3.02;;;;;;;14.92;91.54;99390.19;1779262;80;20993;-72
2021/08/30 02:35:01;;;;;;;5.75;2.90;;;;;;;14.93;91.59;99386.16;1776846;80;21021;-72
2021/08/30 02:37:32;;;;;;;5.05;3.10;;;;;;;14.95;91.57;99387.34;1783197;80;21453;-71
2021/08/30 02:40:02;;;;;;;4.67;2.85;;;;;;;14.91;91.41;99389.36;1722809;81;20985;-72
2021/08/30 02:42:32;;;;;;;4.72;2.90;;;;;;;14.88;91.45;99380.38;1753667;80;20950;-72
2021/08/30 02:45:02;;;;;;;3.35;2.95;;;;;;;14.85;91.48;99389.80;1758801;81;20895;-72
2021/08/30 02:47:31;;;;;;;4.55;2.95;;;;;;;14.84;91.52;99392.04;1764848;79;20981;-72
2021/08/30 02:49:58;;;;;;;4.17;3.05;;;;;;;14.85;91.57;99395.05;1758122;79;21949;-71
2021/08/30 02:52:27;;;;;;;3.98;3.20;;;;;;;14.87;91.74;99398.42;1770878;79;20968;-72
2021/08/30 02:54:54;;;;;;;4.40;3.08;;;;;;;14.90;91.78;99390.32;1773043;79;20928;-71
2021/08/30 02:57:22;;;;;;;;;;;;;;;14.93;91.82;99396.67;1774191;80;21033;-72
2021/08/30 02:59:51;;;;;;;3.17;2.87;;;;;;;14.95;91.81;99390.81;1767810;79;20112;-72
2021/08/30 03:02:21;;;;;;;3.75;3.12;;;;;;;14.94;91.80;99391.77;1776112;79;21196;-72
2021/08/30 03:04:47;;;;;;;3.30;3.00;;;;;;;14.96;91.89;99391.67;1765063;79;21043;-72
2021/08/30 03:07:15;;;;;;;3.85;3.17;;;;;;;14.97;91.95;99388.92;1776254;79;22195;-72
2021/08/30 03:09:42;;;;;;;;;;;;;;;14.98;92.09;99395.02;1777609;80;21548;-72
2021/08/30 03:12:10;;;;;;;4.17;3.22;;;;;;;14.97;92.05;99391.55;1771302;79;20454;-72
2021/08/30 03:14:39;;;;;;;4.28;3.40;;;;;;;14.95;92.31;99389.98;1765831;79;21263;-72
2021/08/30 03:17:10;;;;;;;6.62;3.10;;;;;;;14.92;92.14;99389.72;1759480;80;21006;-72
2021/08/30 03:19:44;;;;;;;3.20;2.90;;;;;;;14.92;92.27;99388.40;1745252;80;21473;-72
2021/08/30 03:22:14;;;;;;;3.75;2.80;;;;;;;14.93;92.20;99390.58;1734829;81;20934;-72
2021/08/30 03:24:43;;;;;;;4.33;2.80;;;;;;;14.95;92.32;99389.98;1775659;79;20950;-72
2021/08/30 03:27:12;;;;;;;4.45;3.00;;;;;;;14.95;92.47;99389.50;1772742;80;21082;-72
2021/08/30 03:29:40;;;;;;;2.80;2.58;;;;;;;14.98;92.45;99390.63;1768717;80;21009;-72
2021/08/30 03:32:11;;;;;;;3.70;2.72;;;;;;;15.02;92.33;99393.03;1763059;80;20981;-72
2021/08/30 03:34:39;;;;;;;2.92;2.62;;;;;;;15.04;92.28;99386.72;1769594;80;21029;-72
2021/08/30 03:37:07;;;;;;;4.15;2.98;;;;;;;15.06;92.28;99381.33;1772821;79;21554;-71
2021/08/30 03:39:34;;;;;;;3.67;2.90;;;;;;;15.07;92.23;99392.20;1772009;79;22582;-72
2021/08/30 03:42:03;;;;;;;3.72;3.35;;;;;;;15.10;92.26;99381.50;1769669;80;21125;-72
2021/08/30 03:44:31;;;;;;;4.58;2.90;;;;;;;15.11;92.16;99381.85;1774589;80;21057;-72
2021/08/30 03:46:59;;;;;;;3.52;2.85;;;;;;;15.11;92.13;99381.85;1772644;79;20901;-72
2021/08/30 03:49:28;;;;;;;3.42;2.70;;;;;;;15.12;92.12;99380.89;1769100;79;21028;-71
2021/08/30 03:51:58;;;;;;;4.47;3.10;;;;;;;15.15;92.07;99388.55;1770926;79;21080;-72
2021/08/30 03:54:25;;;;;;;3.60;3.00;;;;;;;15.15;92.09;99388.55;1774257;80;21711;-72
2021/08/30 03:56:53;;;;;;;3.67;3.05;;;;;;;15.15;91.99;99388.55;1750665;80;20950;-71
2021/08/30 03:59:21;;;;;;;3.55;3.15;;;;;;;15.15;92.03;99385.92;1771194;79;21000;-71
2021/08/30 04:01:52;;;;;;;5.00;3.20;;;;;;;15.17;92.07;99384.03;1771367;80;20937;-72
2021/08/30 04:04:22;;;;;;;3.50;2.67;;;;;;;15.19;92.12;99390.03;1771050;79;22082;-72
2021/08/30 04:06:50;;;;;;;8.25;3.00;;;;;;;15.16;91.94;99392.89;1772508;80;20898;-71
2021/08/30 04:09:20;;;;;;;3.80;3.30;;;;;;;15.15;91.98;99396.45;1768284;79;20996;-72
2021/08/30 04:11:50;;;;;;;3.72;3.22;;;;;;;15.10;91.87;99399.42;1773396;80;21553;-71
2021/08/30 04:14:19;;;;;;;3.83;3.47;;;;;;;15.09;92.00;99404.77;1761775;80;21598;-72
2021/08/30 04:16:47;;;;;;;3.50;3.20;;;;;;;15.11;92.13;99405.52;1763656;80;21432;-71
2021/08/30 04:19:14;;;;;;;4.05;3.65;;;;;;;15.13;92.19;99406.25;1750819;80;21531;-72
2021/08/30 04:21:41;;;;;;;4.05;3.47;;;;;;;15.12;92.17;99407.19;1749689;81;20943;-72
2021/08/30 04:24:08;;;;;;;4.27;3.87;;;;;;;15.14;92.17;99407.92;1754208;80;20923;-72
2021/08/30 04:26:34;;;;;;;4.95;3.70;;;;;;;15.17;92.27;99405.08;1752645;80;22184;-72
2021/08/30 04:29:01;;;;;;;4.22;3.83;;;;;;;15.21;92.35;99400.81;1755870;81;21117;-71
2021/08/30 04:31:28;;;;;;;5.13;3.43;;;;;;;15.27;92.40;99402.16;1749515;81;21057;-72
2021/08/30 04:33:54;;;;;;;3.77;3.45;;;;;;;15.33;92.36;99405.66;1751373;80;21290;-72
2021/08/30 04:36:21;;;;;;;4.57;3.80;;;;;;;15.37;92.30;99399.21;1751872;81;21002;-71
2021/08/30 04:38:48;;;;;;;5.72;4.15;;;;;;;15.38;92.25;99398.28;1754167;80;21253;-71
2021/08/30 04:41:15;;;;;;;4.65;4.12;;;;;;;15.45;92.38;99398.19;1754763;80;21533;-71
2021/08/30 04:43:44;;;;;;;4.42;4.00;;;;;;;15.52;92.30;99397.77;1746771;80;21086;-71
2021/08/30 04:46:11;;;;;;;5.37;3.83;;;;;;;15.51;91.99;99394.75;1751487;80;20954;-71
2021/08/30 04:48:37;;;;;;;5.92;3.90;;;;;;;15.43;91.70;99400.11;1749907;80;20993;-72
2021/08/30 04:51:05;;;;;;;5.33;4.43;;;;;;;15.38;92.21;99395.66;1748151;81;21654;-72
2021/08/30 04:53:31;;;;;;;5.53;4.20;;;;;;;15.38;92.21;99395.66;1723123;81;21513;-72
2021/08/30 04:55:58;;;;;;;5.00;4.10;;;;;;;15.40;92.15;99400.78;1748153;80;21033;-72
2021/08/30 04:58:25;;;;;;;4.70;4.27;;;;;;;15.45;92.22;99399.50;1759791;80;21551;-72
2021/08/30 05:00:52;;;;;;;5.05;4.08;;;;;;;15.50;92.25;99403.61;1759827;81;20956;-71
2021/08/30 05:03:18;;;;;;;7.00;3.77;;;;;;;15.62;92.64;99393.49;1762407;81;20952;-72
2021/08/30 05:05:45;;;;;;;4.87;4.20;;;;;;;15.62;92.64;99393.49;1750729;81;21313;-72
2021/08/30 05:08:12;;;;;;;4.50;3.90;;;;;;;15.65;92.29;99402.47;1759567;80;21307;-72
2021/08/30 05:10:38;;;;;;;4.65;4.10;;;;;;;15.65;92.43;99407.73;1761814;80;20993;-71
2021/08/30 05:13:05;;;;;;;6.50;4.30;;;;;;;15.64;92.38;99411.33;1757453;80;21005;-71
2021/08/30 05:15:32;;;;;;;6.87;4.72;;;;;;;15.68;92.43;99404.91;1755685;80;20964;-72
2021/08/30 05:17:58;;;;;;;5.87;4.45;;;;;;;15.71;92.41;99401.22;1761640;81;21129;-72
2021/08/30 05:20:26;;;;;;;12.50;4.17;;;;;;;15.74;92.44;99400.53;1750247;80;20965;-71
2021/08/30 05:22:53;;;;;;;4.78;4.30;;;;;;;15.77;92.44;99406.89;1747406;80;20961;-71
2021/08/30 05:25:20;;;;;;;5.78;3.90;;;;;;;15.80;92.38;99411.92;1749001;80;21057;-72
2021/08/30 05:27:52;;;;;;;4.60;4.05;;;;;;;15.85;92.42;99404.53;1755136;80;20957;-73
2021/08/30 05:30:20;;;;;;;5.90;3.90;;;;;;;15.88;92.40;99411.36;1741977;81;21994;-72
2021/08/30 05:32:47;;;;;;;4.97;3.98;;;;;;;15.92;92.41;99411.97;1752108;80;21069;-71
2021/08/30 05:35:13;;;;;;;4.17;3.75;;;;;;;15.97;92.35;99413.30;1757258;81;21741;-72
2021/08/30 05:37:41;;;;;;;6.55;4.30;;;;;;;16.01;92.34;99419.17;1749837;81;21049;-72
2021/08/30 05:40:09;;;;;;;4.35;3.95;;;;;;;16.02;92.24;99419.52;1755742;80;21072;-71
2021/08/30 05:42:36;;;;;;;4.40;3.35;;;;;;;16.02;92.24;99416.89;1751701;80;21060;-71
2021/08/30 05:45:04;;;;;;;5.72;3.65;;;;;;;16.01;92.22;99419.17;1755486;80;21057;-71
2021/08/30 05:47:31;;;;;;;4.25;3.40;;;;;;;16.00;92.24;99418.82;1752071;80;21032;-72
2021/08/30 05:49:58;;;;;;;4.58;3.60;;;;;;;16.02;92.24;99424.34;1748751;81;20997;-71
2021/08/30 05:52:25;;;;;;;5.00;3.80;;;;;;;16.02;92.10;99422.16;1750553;81;21004;-70
2021/08/30 05:54:54;;;;;;;3.98;3.08;;;;;;;15.98;92.06;99417.61;1749851;81;21575;-71
2021/08/30 05:57:20;;;;;;;5.85;3.85;;;;;;;15.96;92.16;99422.62;1749794;80;21585;-70
2021/08/30 05:59:47;;;;;;;5.47;3.60;;;;;;;15.91;92.18;99429.56;1748000;80;20908;-70
2021/08/30 06:02:15;;;;;;;6.27;3.40;;;;;;;15.89;92.32;99419.13;1752122;81;21380;-71
2021/08/30 06:04:42;;;;;;;6.25;3.02;;;;;;;15.92;92.36;99427.77;1752237;81;20974;-70
2021/08/30 06:07:09;;;;;;;4.50;2.83;;;;;;;15.97;92.38;99423.00;1750567;81;21068;-70
2021/08/30 06:09:36;;;;;;;6.40;3.15;;;;;;;16.04;92.33;99425.52;1746909;80;20996;-70
2021/08/30 06:12:03;;;;;;;6.45;3.12;;;;;;;16.13;92.33;99420.88;1753204;80;20934;-71
2021/08/30 06:14:30;;;;;;;5.87;2.83;;;;;;;16.17;92.23;99426.30;1754502;80;21032;-70
2021/08/30 06:16:57;;;;;;;6.90;2.95;;;;;;;16.21;92.09;99429.05;1749778;80;21050;-69
2021/08/30 06:19:24;;;;;;;4.00;2.90;;;;;;;16.26;92.06;99426.91;1747701;81;21833;-69
2021/08/30 06:21:50;;;;;;;5.80;3.13;;;;;;;16.29;91.94;99431.95;1725769;81;20982;-68
2021/08/30 06:24:17;;;;;;;2.85;2.60;;;;;;;16.30;91.90;99423.10;1725782;81;21224;-68
2021/08/30 06:26:44;;;;;;;3.70;2.83;;;;;;;16.31;91.90;99419.98;1727014;81;21153;-68
2021/08/30 06:29:11;;;;;;;3.70;2.70;;;;;;;16.32;91.84;99421.17;1729223;81;21603;-70
2021/08/30 06:31:37;;;;;;;3.52;3.02;;;;;;;16.31;91.73;99422.14;1723243;81;21073;-69
2021/08/30 06:34:04;;;;;;;3.20;2.42;;;;;;;16.29;91.65;99414.81;1727801;82;21080;-69
2021/08/30 06:36:31;;;;;;;3.03;2.73;;;;;;;16.25;91.58;99421.29;1734741;81;20977;-68
2021/08/30 06:38:57;;;;;;;4.00;2.67;;;;;;;16.25;91.58;99421.29;1726711;81;21530;-68
2021/08/30 06:41:25;;;;;;;3.83;2.98;;;;;;;16.29;91.42;99429.31;1731543;81;21024;-70
2021/08/30 06:43:52;;;;;;;5.30;3.02;;;;;;;16.30;91.57;99409.09;1731163;81;21104;-69
2021/08/30 06:46:22;;;;;;;;;;;;;;;16.30;91.54;99417.83;1735756;81;20965;-70
2021/08/30 06:48:48;;;;;;;3.15;2.58;;;;;;;16.29;91.53;99412.19;1730492;81;20237;-71
2021/08/30 06:51:15;;;;;;;4.08;2.27;;;;;;;16.22;91.27;99425.48;1721635;81;21405;-71
2021/08/30 06:53:41;;;;;;;5.42;2.52;;;;;;;16.17;91.33;99421.03;1733385;81;21036;-73
2021/08/30 06:56:08;;;;;;;3.80;2.80;;;;;;;16.18;91.33;99416.11;1730612;81;21211;-73
2021/08/30 06:58:35;;;;;;;3.17;2.70;;;;;;;16.05;91.53;99399.57;1726891;81;21509;-74
2021/08/30 07:01:01;;;;;;;5.30;2.90;;;;;;;16.24;91.45;99430.61;1733470;81;21203;-71
2021/08/30 07:03:31;;;;;;;3.67;2.80;;;;;;;16.27;91.39;99423.34;1729722;81;21234;-73
2021/08/30 07:06:26;;;;;;;4.12;2.55;;;;;;;16.25;91.09;99421.29;1728289;81;21072;-70
2021/08/30 07:09:06;;;;;;;3.75;2.50;;;;;;;16.31;91.51;99415.55;1776498;80;21305;-71
2021/08/30 07:11:43;;;;;;;4.72;2.87;;;;;;;16.32;91.38;99436.98;1775366;80;21040;-71
2021/08/30 07:14:18;;;;;;;3.37;2.30;;;;;;;16.36;91.38;99430.19;1773565;80;20965;-75
2021/08/30 07:16:59;;;;;;;;;;;;;;;;;;;;;
2021/08/30 07:20:59;;;;;;;6.80;2.85;;;;;;;16.42;91.27;99421.81;1817449;75;23439;-70
2021/08/30 07:23:31;;;;;;;3.22;2.42;;;;;;;16.42;91.31;99431.03;1811909;77;20974;-69
2021/08/30 07:25:58;;;;;;;3.10;2.58;;;;;;;16.61;91.76;99418.12;1810654;77;21033;-68
2021/08/30 07:28:25;;;;;;;6.83;2.70;;;;;;;16.78;91.12;99429.55;1810858;77;26369;-70
2021/08/30 07:30:54;;;;;;;3.77;2.33;;;;;;;16.88;91.06;99419.59;1799762;77;20927;-70
2021/08/30 07:33:20;;;;;;;4.10;2.58;;;;;;;16.83;90.56;99419.11;1811756;77;20991;-69
2021/08/30 07:35:47;;;;;;;4.97;2.80;;;;;;;16.81;90.83;99421.05;1810835;77;20995;-70
2021/08/30 07:38:13;;;;;;;2.87;2.50;;;;;;;16.63;90.16;99429.37;1810393;77;21607;-69
2021/08/30 07:40:40;;;;;;;2.83;2.47;;;;;;;16.57;90.33;99424.58;1771655;79;20982;-69
2021/08/30 07:43:07;;;;;;;2.90;2.40;;;;;;;16.57;90.53;99425.89;1748358;80;20966;-69
2021/08/30 07:45:34;;;;;;;2.50;2.25;;;;;;;16.80;90.96;99429.90;1775708;79;21145;-69
2021/08/30 07:48:00;;;;;;;5.10;2.30;;;;;;;16.89;89.76;99431.36;1761414;79;21068;-69
2021/08/30 07:50:27;;;;;;;3.02;2.30;;;;;;;16.93;89.81;99430.63;1764409;79;21871;-70
2021/08/30 07:52:53;;;;;;;5.50;2.25;;;;;;;16.97;89.81;99438.64;1761971;79;21000;-70
2021/08/30 07:55:22;;;;;;;3.45;2.25;;;;;;;17.13;90.63;99435.16;1766068;79;21091;-71
2021/08/30 07:57:51;;;;;;;2.62;2.08;;;;;;;17.05;88.99;99432.29;1764649;79;20969;-71
2021/08/30 08:00:19;;;;;;;3.42;2.30;;;;;;;17.05;89.35;99436.25;1760013;79;21092;-71
2021/08/30 08:02:46;;;;;;;5.90;2.05;;;;;;;17.05;88.62;99427.02;1772018;79;21148;-74
2021/08/30 08:05:12;;;;;;;2.17;1.80;;;;;;;17.07;88.20;99433.50;1771398;79;20916;-75
2021/08/30 08:07:39;;;;;;;4.03;2.20;;;;;;;17.04;88.95;99425.35;1762598;79;21012;-76
2021/08/30 08:10:07;;;;;;;2.55;2.20;;;;;;;16.99;88.87;99422.23;1762461;79;21020;-76
2021/08/30 08:12:34;;;;;;;5.03;2.35;;;;;;;16.98;88.78;99431.11;1728162;79;21041;-75
2021/08/30 08:15:02;;;;;;;3.55;2.20;;;;;;;16.84;88.91;99426.92;1760450;79;21061;-74
2021/08/30 08:17:30;;;;;;;3.00;2.30;;;;;;;16.73;88.99;99432.98;1762530;79;21067;-71
2021/08/30 08:19:57;;;;;;;2.85;2.20;;;;;;;16.61;88.77;99423.41;1780296;79;21519;-75
2021/08/30 08:22:23;;;;;;;2.05;1.87;;;;;;;16.52;88.99;99431.98;1749544;80;20999;-73
2021/08/30 08:24:50;;;;;;;5.10;2.40;;;;;;;16.39;88.91;99433.91;1745294;80;21035;-74
2021/08/30 08:27:17;;;;;;;4.75;2.60;;;;;;;16.27;88.74;99406.22;1757248;79;21946;-73
2021/08/30 08:29:43;;;;;;;3.33;2.33;;;;;;;16.24;88.96;99431.45;1757921;79;21120;-73
2021/08/30 08:32:10;;;;;;;3.77;2.62;;;;;;;16.27;88.99;99439.14;1751784;79;21066;-69
2021/08/30 08:34:37;;;;;;;2.33;2.17;;;;;;;16.29;89.11;99437.22;1784030;79;21005;-74
2021/08/30 08:37:08;;;;;;;4.35;2.70;;;;;;;16.24;88.92;99441.98;1759877;79;21067;-72
2021/08/30 08:39:36;;;;;;;7.17;2.27;;;;;;;16.30;89.36;99431.49;1783065;79;21578;-72
2021/08/30 08:42:04;;;;;;;3.83;2.45;;;;;;;16.31;89.20;99437.11;1771785;79;21056;-74
2021/08/30 08:44:31;;;;;;;8.28;2.85;;;;;;;16.24;89.14;99446.42;1741063;80;21655;-73
2021/08/30 08:46:58;;;;;;;2.42;2.22;;;;;;;16.03;88.65;99451.50;1747925;80;20986;-72
2021/08/30 08:49:25;;;;;;;;;;;;;;;15.90;88.95;99455.51;1775512;79;21033;-71
2021/08/30 08:51:51;;;;;;;3.95;2.52;;;;;;;15.78;89.30;99448.04;1749958;80;21063;-71
2021/08/30 08:54:18;;;;;;;5.45;2.62;;;;;;;15.73;89.59;99434.38;1772076;79;21027;-70
2021/08/30 08:56:45;;;;;;;4.45;2.60;;;;;;;15.59;89.58;99442.41;1750788;80;21009;-70
2021/08/30 08:59:11;;;;;;;7.47;2.30;;;;;;;15.42;89.73;99457.61;1776797;79;20972;-70
2021/08/30 09:04:37;;;;;;;4.37;2.80;;;;;;;15.09;89.98;99457.36;1725486;82;21890;-72
2021/08/30 09:07:13;;;;;;;2.87;2.47;;;;;;;14.99;90.39;99450.13;1729011;82;22068;-72
2021/08/30 09:09:48;;;;;;;2.95;2.25;;;;;;;14.93;90.66;99447.94;1743188;81;21610;-72
2021/08/30 09:12:21;;;;;;;2.83;2.20;;;;;;;14.88;91.45;99447.41;1745813;81;21017;-71
2021/08/30 09:14:48;;;;;;;5.33;2.62;;;;;;;14.84;91.12;99450.34;1752766;81;21179;-70
2021/08/30 09:17:14;;;;;;;1.70;1.60;;;;;;;14.85;91.31;99455.51;1750321;81;22385;-69
2021/08/30 09:21:47;;;;;;;2.02;1.70;;;;;;;14.86;91.52;99457.66;1760231;78;22279;-69
2021/08/30 09:24:20;;;;;;;2.58;2.05;;;;;;;14.78;91.34;99459.49;1710103;81;21002;-70
2021/08/30 09:26:57;;;;;;;2.67;2.00;;;;;;;14.74;91.59;99454.09;1718611;81;20993;-69
2021/08/30 09:29:31;;;;;;;2.00;1.80;;;;;;;14.73;92.13;99455.02;1713204;81;20954;-68
2021/08/30 09:32:16;;;;;;;1.55;1.45;;;;;;;14.83;92.16;99446.88;1719003;81;20998;-68
2021/08/30 09:34:52;;;;;;;5.75;1.25;;;;;;;14.87;92.37;99451.00;1707911;81;20977;-69
2021/08/30 09:37:23;;;;;;;2.92;1.40;;;;;;;14.91;92.25;99444.56;1709788;81;21012;-70
2021/08/30 09:40:00;;;;;;;1.42;1.32;;;;;;;14.91;92.74;99441.94;1711825;81;21106;-69
2021/08/30 09:42:28;;;;;;;1.80;1.25;;;;;;;14.87;92.73;99437.85;1711484;81;20989;-69
2021/08/30 09:45:09;;;;;;;2.60;1.70;;;;;;;14.89;92.54;99449.08;1712424;81;21668;-69
2021/08/30 09:47:36;;;;;;;1.35;1.25;;;;;;;14.91;92.69;99441.94;1716906;81;21581;-68
2021/08/30 09:50:05;;;;;;;1.87;1.50;;;;;;;14.91;92.77;99445.88;1709736;81;21055;-69
2021/08/30 09:52:33;;;;;;;3.55;1.40;;;;;;;14.92;92.94;99442.29;1711030;81;21089;-70
2021/08/30 09:55:00;;;;;;;1.40;1.25;;;;;;;14.92;92.94;99440.14;1692963;81;21027;-70
2021/08/30 09:57:28;;;;;;;2.10;1.25;;;;;;;14.92;92.82;99450.17;1716729;81;21024;-69
2021/08/30 09:59:56;;;;;;;1.00;0.80;;;;;;;14.82;93.99;99442.58;1710633;81;21094;-69
2021/08/30 10:02:28;;;;;;;;;;;;;;;14.77;93.26;99436.80;1719212;80;21146;-67
2021/08/30 10:05:02;;;;;;;1.85;1.47;;;;;;;14.67;93.16;99443.63;1715217;81;21454;-67
2021/08/30 10:09:23;;;;;;;1.70;1.20;;;;;;;14.65;93.69;99452.11;1805021;77;22755;-66
2021/08/30 10:12:12;;;;;;;1.82;1.45;;;;;;;14.60;93.66;99445.01;1781496;77;21636;-66
2021/08/30 10:14:48;;;;;;;1.35;1.20;;;;;;;14.64;93.88;99460.44;1725868;81;21076;-67
2021/08/30 10:17:48;;;;;;;;;;;;;;;;;;;;;
2021/08/30 10:20:35;;;;;;;;;;;;;;;;;;;;;
2021/08/30 10:23:24;;;;;;;1.62;1.10;;;;;;;14.70;94.03;99446.03;1669041;84;21728;-68
2021/08/30 10:26:42;;;;;;;;;;;;;;;;;;;;;
2021/08/30 10:29:29;;;;;;;10.03;1.45;;;;;;;14.59;94.85;99446.80;1660066;84;21578;-70
2021/08/30 10:32:09;;;;;;;1.95;1.50;;;;;;;14.54;95.08;99454.98;1669795;84;21804;-69
2021/08/30 10:35:07;;;;;;;;;;;;;;;;;;;;;
2021/08/30 10:37:58;;;;;;;2.65;2.08;;;;;;;14.48;96.21;99463.25;1660813;84;21034;-69
2021/08/30 10:40:35;;;;;;;3.25;2.02;;;;;;;14.62;95.88;99445.72;1656921;84;21099;-69
2021/08/30 10:43:28;;;;;;;2.33;2.02;;;;;;;14.71;95.80;99449.05;1667183;84;21100;-70
2021/08/30 10:46:09;;;;;;;4.28;3.02;;;;;;;14.80;95.67;99452.83;1668841;84;21066;-71
2021/08/30 10:49:11;;;;;;;6.42;3.67;;;;;;;14.83;95.57;99454.77;1664476;84;21689;-70
2021/08/30 10:52:48;;;;;;;4.05;3.25;;;;;;;15.03;95.49;99449.91;1633368;86;21056;-71
2021/08/30 10:55:28;;;;;;;5.53;3.83;;;;;;;15.18;95.35;99438.33;1607506;88;20998;-69
2021/08/30 10:58:25;;;;;;;6.83;4.15;;;;;;;15.62;94.88;99444.81;1642255;84;21993;-70
2021/08/30 11:00:47;;;;;;;4.83;4.08;;;;;;;15.62;94.88;99444.81;1608936;88;21729;-69
2021/08/30 11:03:35;;;;;;;4.35;3.55;;;;;;;15.72;94.90;99447.66;1621607;86;21358;-69
2021/08/30 11:06:37;;;;;;;;;;;;;;;;;;;;;
2021/08/30 11:09:02;;;;;;;4.65;3.58;;;;;;;15.75;94.46;99448.75;1603384;87;21099;-68
2021/08/30 11:11:50;;;;;;;12.63;4.17;;;;;;;15.56;94.31;99451.84;1607488;87;21534;-67
2021/08/30 11:14:40;;;;;;;11.73;4.42;;;;;;;15.46;94.67;99460.88;1599403;87;21162;-67
2021/08/30 11:17:27;;;;;;;6.05;4.30;;;;;;;15.37;95.00;99451.83;1603221;89;21158;-68
2021/08/30 11:23:09;;;;;;;4.42;3.60;;;;;;;15.31;95.54;99449.64;1548138;91;21651;-68
2021/08/30 11:32:05;;;;;;;3.30;2.90;;;;;;;15.65;95.97;99448.05;1487764;94;21336;-67
2021/08/30 11:34:55;;;;;;;4.03;3.55;;;;;;;15.70;95.73;99450.39;1492260;94;21722;-68
2021/08/30 11:37:50;;;;;;;4.83;3.50;;;;;;;15.77;95.94;99449.00;1497579;93;21667;-67
2021/08/30 11:40:23;;;;;;;4.67;3.20;;;;;;;15.84;95.55;99454.16;1510962;93;21137;-68
2021/08/30 11:42:49;;;;;;;4.28;3.35;;;;;;;15.77;95.13;99451.64;1508547;92;21371;-68
2021/08/30 11:45:16;;;;;;;5.72;3.42;;;;;;;15.72;95.26;99459.02;1519018;92;21087;-68
2021/08/30 11:47:43;;;;;;;3.60;3.20;;;;;;;15.66;95.38;99462.07;1509995;93;21199;-73
2021/08/30 11:50:12;;;;;;;3.00;2.58;;;;;;;15.65;95.48;99460.37;1511183;93;21882;-70
2021/08/30 11:52:40;;;;;;;3.02;2.33;;;;;;;15.60;95.49;99449.33;1516582;93;21177;-75
2021/08/30 11:55:18;;;;;;;2.60;2.27;;;;;;;15.54;95.56;99449.78;1518780;92;21766;-68
2021/08/30 11:58:04;;;;;;;3.20;2.30;;;;;;;15.48;95.60;99454.17;1519637;92;21770;-68
2021/08/30 12:00:32;;;;;;;3.00;2.55;;;;;;;15.53;95.77;99456.01;1548479;89;21188;-68
2021/08/30 12:03:03;;;;;;;3.47;2.90;;;;;;;15.52;95.61;99453.02;1572242;89;21018;-68
2021/08/30 12:05:32;;;;;;;4.08;2.72;;;;;;;15.44;95.56;99463.61;1556367;90;21064;-68
2021/08/30 12:08:00;;;;;;;2.90;2.42;;;;;;;15.36;95.68;99457.22;1583897;88;21138;-68
2021/08/30 12:10:30;;;;;;;2.67;2.00;;;;;;;15.30;95.75;99455.86;1729911;80;20958;-69
2021/08/30 12:15:31;;;;;;;3.00;2.42;;;;;;;15.18;96.04;99460.20;1740831;82;21020;-81
2021/08/30 12:18:00;;;;;;;3.33;3.02;;;;;;;15.16;96.15;99458.63;1734236;82;21081;-68
2021/08/30 12:20:37;;;;;;;3.72;2.80;;;;;;;15.15;96.25;99468.31;1737951;80;20965;-67
2021/08/30 12:23:12;;;;;;;5.22;2.70;;;;;;;15.11;96.69;99468.63;1707280;82;21066;-67
2021/08/30 12:26:02;;;;;;;3.50;2.87;;;;;;;15.10;96.48;99470.91;1712942;82;20905;-67